Stolt Effort — ZCSP6 — position and weather

sailwx.info

Track history (hours):
 
Tides and Currents Weather Stations Pressure Air Temp Water Temp Dewpoint Dewpoint Depression Visibility Wind Speed Wind Dir Waves Ship Positions

Stolt Effort

Last reported at 2015-Jul-29 02:31 UTC. Time now 2015-Jul-29 02:39 UTC.
Position N 51°16' E 004°15'.

Length 176 m; draft 8 m.

Type: Ship (hazmat cat B). MMSI: 319445000.

Date/timePositionNaut miles runAvg speedWind from/ knotsBaromVisibWave heightAir tempDewpointWater temp
2015-Jul-29 02:31N 51°16' E 004°15'0 0.0
2015-Jul-29 01:31N 51°16' E 004°15'0 0.0
2015-Jul-29 00:32N 51°16' E 004°15'0 0.0
2015-Jul-28 23:31N 51°16' E 004°15'0 0.0
2015-Jul-28 22:28N 51°16' E 004°15'0 0.0
2015-Jul-28 21:31N 51°16' E 004°15'0 0.0
2015-Jul-28 20:28N 51°16' E 004°15'0 0.0
2015-Jul-28 19:20N 51°16' E 004°15'0 0.0
2015-Jul-28 18:32N 51°16' E 004°15'0 0.0
2015-Jul-28 17:31N 51°16' E 004°15'0 0.0
2015-Jul-28 16:31N 51°16' E 004°15'0 0.0
2015-Jul-28 15:31N 51°16' E 004°15'0 0.0
2015-Jul-28 14:31N 51°16' E 004°15'0 0.0
2015-Jul-28 13:31N 51°16' E 004°15'0 0.0
2015-Jul-28 12:31N 51°16' E 004°15'0 0.0
2015-Jul-28 11:31N 51°16' E 004°15'0 0.0
2015-Jul-28 10:31N 51°16' E 004°15'0 0.0
2015-Jul-28 09:31N 51°16' E 004°15'0 0.0
2015-Jul-28 08:32N 51°16' E 004°15'0 0.0
2015-Jul-28 07:31N 51°16' E 004°15'0 0.0
2015-Jul-28 06:28N 51°16' E 004°15'0 0.0
2015-Jul-28 05:31N 51°16' E 004°15'0 0.0
2015-Jul-28 04:31N 51°16' E 004°15'0 0.0
2015-Jul-28 03:32N 51°16' E 004°15'0 0.0
2015-Jul-28 02:32N 51°16' E 004°15'0 0.0
2015-Jul-28 01:31N 51°16' E 004°15'0 0.0
2015-Jul-28 00:31N 51°16' E 004°15'0 0.0
2015-Jul-27 23:31N 51°16' E 004°15'0 0.0
2015-Jul-27 22:31N 51°16' E 004°15'0 0.0
2015-Jul-27 21:31N 51°16' E 004°15'0 0.0
2015-Jul-27 20:31N 51°16' E 004°15'0 0.0
2015-Jul-27 19:31N 51°16' E 004°15'0 0.0
2015-Jul-27 18:32N 51°16' E 004°15'0 0.0
2015-Jul-27 17:32N 51°16' E 004°15'0 0.0
2015-Jul-27 16:31N 51°16' E 004°15'2 1.7
2015-Jul-27 15:30N 51°17' E 004°14'0 0.0
2015-Jul-27 06:27N 51°17' E 004°14'0 0.0
2015-Jul-27 04:18N 51°17' E 004°14'0 0.0
2015-Jul-26 21:12N 51°17' E 004°14'0 0.0
2015-Jul-26 18:33N 51°17' E 004°14'0 0.0
2015-Jul-26 14:27N 51°17' E 004°14'0 0.0
2015-Jul-26 05:30N 51°17' E 004°14'0 0.0
2015-Jul-26 01:06N 51°17' E 004°14'0 0.0
2015-Jul-26 00:33N 51°17' E 004°14'2 2.2
2015-Jul-25 23:34N 51°16' E 004°17'2 1.8
2015-Jul-25 22:33N 51°17' E 004°19'9 8.7
2015-Jul-25 21:34N 51°24' E 004°11'9 8.5
2015-Jul-25 20:33N 51°24' E 003°58'9 9.4
2015-Jul-25 19:33N 51°24' E 003°43'9 9.3
2015-Jul-25 18:33N 51°25' E 003°28'1111.1
2015-Jul-25 17:33N 51°24' E 003°10'1212.3
2015-Jul-25 16:34N 51°22' E 002°51'9 8.3
2015-Jul-25 15:31N 51°24' E 002°37'0 0.0
2015-Jul-25 14:28N 51°24' E 002°37'0 0.0
2015-Jul-25 13:31N 51°24' E 002°37'0 0.0
2015-Jul-25 12:19N 51°24' E 002°38'0 0.0
2015-Jul-25 11:31N 51°24' E 002°38'0 0.0
2015-Jul-25 10:25N 51°24' E 002°37'0 0.0
2015-Jul-25 09:31N 51°24' E 002°38'0 0.0
2015-Jul-25 08:31N 51°24' E 002°38'0 0.0
2015-Jul-25 07:25N 51°24' E 002°38'0 0.0
2015-Jul-25 06:31N 51°24' E 002°38'0 0.0
2015-Jul-25 05:31N 51°24' E 002°37'0 0.3
2015-Jul-25 04:33N 51°24' E 002°37'7 6.9
2015-Jul-25 03:33N 51°21' E 002°27'1110.9
2015-Jul-25 02:33N 51°19' E 002°11'9 9.1
2015-Jul-25 01:33N 51°24' E 001°59'10 9.6
2015-Jul-25 00:34N 51°32' E 002°06'39 6.5
2015-Jul-24 18:29N 52°11' E 002°21'5 5.5
2015-Jul-24 17:33N 52°16' E 002°23'1 1.1
2015-Jul-24 16:34N 52°15' E 002°23'2 1.7
2015-Jul-24 15:34N 52°14' E 002°21'14 6.6
2015-Jul-24 13:30N 52°27' E 002°25'16 8.4
2015-Jul-24 11:33N 52°43' E 002°25'7 7.2
2015-Jul-24 10:33N 52°51' E 002°26'5 5.2
2015-Jul-24 09:30N 52°55' E 002°31'8 7.4
2015-Jul-24 08:29N 52°47' E 002°33'8 8.2
2015-Jul-24 07:30N 52°39' E 002°33'8 8.1
2015-Jul-24 06:34N 52°32' E 002°33'8 7.7
2015-Jul-24 05:31N 52°24' E 002°33'7 7.2
2015-Jul-24 04:33N 52°17' E 002°33'6 6.4
2015-Jul-24 03:32N 52°10' E 002°33'5 5.2
2015-Jul-24 02:34N 52°14' E 002°28'8 8.3
2015-Jul-24 01:33N 52°22' E 002°28'8 8.4
2015-Jul-24 00:33N 52°31' E 002°29'10 7.7
2015-Jul-23 23:13N 52°41' E 002°29'5 6.9
2015-Jul-23 22:30N 52°46' E 002°29'7 6.6
2015-Jul-23 21:31N 52°53' E 002°29'22 6.7
2015-Jul-23 18:16N 52°32' E 002°20'5 0.8
2015-Jul-23 12:19N 52°28' E 002°24'7 1.0
2015-Jul-23 05:34N 52°31' E 002°33'38 5.9
2015-Jul-22 23:10N 52°04' E 003°15'813.3
2015-Jul-22 22:32N 52°04' E 003°28'1312.9
2015-Jul-22 21:33N 52°04' E 003°49'1010.2
2015-Jul-22 20:34N 51°59' E 004°04'9 8.7
2015-Jul-22 19:34N 51°55' E 004°15'2 2.4
2015-Jul-22 18:32N 51°53' E 004°19'0 0.0
2015-Jul-22 17:29N 51°53' E 004°19'0 0.0
2015-Jul-22 16:29N 51°53' E 004°19'0 0.0
2015-Jul-22 15:29N 51°53' E 004°19'0 0.0
2015-Jul-22 14:29N 51°53' E 004°19'0 0.0
2015-Jul-22 13:26N 51°53' E 004°19'0 0.0
2015-Jul-22 12:32N 51°53' E 004°19'0 0.0
2015-Jul-22 11:32N 51°53' E 004°19'0 0.0
2015-Jul-22 10:29N 51°53' E 004°19'0 0.0
2015-Jul-22 09:29N 51°53' E 004°19'0 0.0
2015-Jul-22 08:32N 51°53' E 004°19'0 0.0
2015-Jul-22 07:29N 51°53' E 004°19'0 0.0
2015-Jul-22 06:26N 51°53' E 004°19'0 0.0
2015-Jul-22 05:32N 51°53' E 004°19'0 0.0
2015-Jul-22 04:29N 51°53' E 004°19'0 0.0
2015-Jul-22 03:29N 51°53' E 004°19'0 0.0
2015-Jul-22 02:26N 51°53' E 004°19'0 0.0
2015-Jul-22 01:29N 51°53' E 004°19'0 0.0
2015-Jul-22 00:23N 51°53' E 004°19'0 0.0
2015-Jul-21 23:32N 51°53' E 004°19'0 0.0
2015-Jul-21 22:32N 51°53' E 004°19'0 0.0
2015-Jul-21 21:29N 51°53' E 004°19'0 0.0
2015-Jul-21 20:29N 51°53' E 004°19'0 0.0
2015-Jul-21 19:17N 51°53' E 004°19'0 0.0
2015-Jul-21 18:32N 51°53' E 004°19'0 0.0
2015-Jul-21 17:32N 51°53' E 004°19'0 0.0
2015-Jul-21 16:32N 51°53' E 004°19'2 2.2
2015-Jul-21 15:33N 51°54' E 004°22'0 0.0
2015-Jul-21 14:31N 51°54' E 004°22'0 0.0
2015-Jul-21 13:31N 51°54' E 004°22'0 0.0
2015-Jul-21 12:28N 51°54' E 004°22'0 0.0
2015-Jul-21 11:31N 51°54' E 004°22'0 0.0
2015-Jul-21 10:31N 51°54' E 004°22'0 0.0
2015-Jul-21 09:25N 51°54' E 004°22'0 0.0
2015-Jul-21 08:28N 51°54' E 004°22'0 0.0
2015-Jul-21 07:31N 51°54' E 004°22'0 0.0
2015-Jul-21 06:31N 51°54' E 004°22'0 0.0
2015-Jul-21 05:31N 51°54' E 004°22'0 0.0
2015-Jul-21 04:31N 51°54' E 004°22'0 0.0
2015-Jul-21 03:31N 51°54' E 004°22'0 0.0
2015-Jul-21 02:31N 51°54' E 004°22'0 0.0
2015-Jul-21 01:31N 51°54' E 004°22'0 0.0
2015-Jul-21 00:31N 51°54' E 004°22'0 0.0
2015-Jul-20 23:31N 51°54' E 004°22'0 0.0
2015-Jul-20 22:28N 51°54' E 004°22'0 0.0
2015-Jul-20 21:31N 51°54' E 004°22'0 0.0
2015-Jul-20 20:31N 51°54' E 004°22'0 0.0
2015-Jul-20 19:31N 51°54' E 004°22'0 0.0
2015-Jul-20 18:31N 51°54' E 004°22'0 0.0
2015-Jul-20 17:28N 51°54' E 004°22'0 0.0
2015-Jul-20 16:31N 51°54' E 004°22'0 0.0
2015-Jul-20 15:31N 51°54' E 004°22'0 0.0
2015-Jul-20 14:31N 51°54' E 004°22'0 0.0
2015-Jul-20 13:31N 51°54' E 004°22'0 0.0
2015-Jul-20 12:31N 51°54' E 004°22'0 0.0
2015-Jul-20 11:31N 51°54' E 004°22'0 0.0
2015-Jul-20 10:31N 51°54' E 004°22'0 0.0
2015-Jul-20 09:31N 51°54' E 004°22'0 0.0
2015-Jul-20 08:31N 51°54' E 004°22'0 0.0
2015-Jul-20 06:25N 51°54' E 004°22'0 0.0
2015-Jul-20 05:31N 51°54' E 004°22'0 0.0
2015-Jul-20 04:31N 51°54' E 004°22'0 0.0
2015-Jul-20 03:28N 51°54' E 004°22'0 0.0
2015-Jul-20 02:31N 51°54' E 004°22'0 0.0
2015-Jul-20 01:28N 51°54' E 004°22'0 0.0
2015-Jul-20 00:31N 51°54' E 004°22'0 0.0
2015-Jul-19 23:31N 51°54' E 004°22'0 0.0
2015-Jul-19 22:31N 51°54' E 004°22'0 0.0
2015-Jul-19 21:31N 51°54' E 004°22'0 0.0
2015-Jul-19 20:31N 51°54' E 004°22'0 0.0
2015-Jul-19 19:31N 51°54' E 004°22'0 0.0
2015-Jul-19 18:28N 51°54' E 004°22'0 0.0
2015-Jul-19 17:28N 51°54' E 004°22'0 0.0
2015-Jul-19 16:31N 51°54' E 004°22'0 0.0
2015-Jul-19 15:31N 51°54' E 004°22'0 0.0
2015-Jul-19 14:31N 51°54' E 004°22'0 0.0
2015-Jul-19 13:31N 51°54' E 004°22'0 0.0
2015-Jul-19 12:31N 51°54' E 004°22'0 0.0
2015-Jul-19 11:31N 51°54' E 004°22'0 0.0
2015-Jul-19 10:31N 51°54' E 004°22'4 4.1
2015-Jul-19 09:33N 51°55' E 004°15'8 7.6
2015-Jul-19 08:33N 51°59' E 004°05'1110.6
2015-Jul-19 07:33N 51°60' E 003°48'10 8.5
2015-Jul-19 06:26N 51°57' E 003°33'2612.0
2015-Jul-19 04:17N 51°50' E 002°53'  
Track history (hours):
 
Tides and Currents Weather Stations Pressure Air Temp Water Temp Dewpoint Dewpoint Depression Visibility Wind Speed Wind Dir Waves Ship Positions

Stolt Effort

Last reported at 2015-Jul-29 02:31 UTC. Time now 2015-Jul-29 02:39 UTC.
Position N 51°16' E 004°15'.

Length 176 m; draft 8 m.

Type: Ship (hazmat cat B). MMSI: 319445000.

Date/timePositionNaut miles runAvg speedWind from/ knotsBaromVisibWave heightAir tempDewpointWater temp
2015-Jul-29 02:31N 51°16' E 004°15'0 0.0
2015-Jul-29 01:31N 51°16' E 004°15'0 0.0
2015-Jul-29 00:32N 51°16' E 004°15'0 0.0
2015-Jul-28 23:31N 51°16' E 004°15'0 0.0
2015-Jul-28 22:28N 51°16' E 004°15'0 0.0
2015-Jul-28 21:31N 51°16' E 004°15'0 0.0
2015-Jul-28 20:28N 51°16' E 004°15'0 0.0
2015-Jul-28 19:20N 51°16' E 004°15'0 0.0
2015-Jul-28 18:32N 51°16' E 004°15'0 0.0
2015-Jul-28 17:31N 51°16' E 004°15'0 0.0
2015-Jul-28 16:31N 51°16' E 004°15'0 0.0
2015-Jul-28 15:31N 51°16' E 004°15'0 0.0
2015-Jul-28 14:31N 51°16' E 004°15'0 0.0
2015-Jul-28 13:31N 51°16' E 004°15'0 0.0
2015-Jul-28 12:31N 51°16' E 004°15'0 0.0
2015-Jul-28 11:31N 51°16' E 004°15'0 0.0
2015-Jul-28 10:31N 51°16' E 004°15'0 0.0
2015-Jul-28 09:31N 51°16' E 004°15'0 0.0
2015-Jul-28 08:32N 51°16' E 004°15'0 0.0
2015-Jul-28 07:31N 51°16' E 004°15'0 0.0
2015-Jul-28 06:28N 51°16' E 004°15'0 0.0
2015-Jul-28 05:31N 51°16' E 004°15'0 0.0
2015-Jul-28 04:31N 51°16' E 004°15'0 0.0
2015-Jul-28 03:32N 51°16' E 004°15'0 0.0
2015-Jul-28 02:32N 51°16' E 004°15'0 0.0
2015-Jul-28 01:31N 51°16' E 004°15'0 0.0
2015-Jul-28 00:31N 51°16' E 004°15'0 0.0
2015-Jul-27 23:31N 51°16' E 004°15'0 0.0
2015-Jul-27 22:31N 51°16' E 004°15'0 0.0
2015-Jul-27 21:31N 51°16' E 004°15'0 0.0
2015-Jul-27 20:31N 51°16' E 004°15'0 0.0
2015-Jul-27 19:31N 51°16' E 004°15'0 0.0
2015-Jul-27 18:32N 51°16' E 004°15'0 0.0
2015-Jul-27 17:32N 51°16' E 004°15'0 0.0
2015-Jul-27 16:31N 51°16' E 004°15'2 1.7
2015-Jul-27 15:30N 51°17' E 004°14'0 0.0
2015-Jul-27 06:27N 51°17' E 004°14'0 0.0
2015-Jul-27 04:18N 51°17' E 004°14'0 0.0
2015-Jul-26 21:12N 51°17' E 004°14'0 0.0
2015-Jul-26 18:33N 51°17' E 004°14'0 0.0
2015-Jul-26 14:27N 51°17' E 004°14'0 0.0
2015-Jul-26 05:30N 51°17' E 004°14'0 0.0
2015-Jul-26 01:06N 51°17' E 004°14'0 0.0
2015-Jul-26 00:33N 51°17' E 004°14'2 2.2
2015-Jul-25 23:34N 51°16' E 004°17'2 1.8
2015-Jul-25 22:33N 51°17' E 004°19'9 8.7
2015-Jul-25 21:34N 51°24' E 004°11'9 8.5
2015-Jul-25 20:33N 51°24' E 003°58'9 9.4
2015-Jul-25 19:33N 51°24' E 003°43'9 9.3
2015-Jul-25 18:33N 51°25' E 003°28'1111.1
2015-Jul-25 17:33N 51°24' E 003°10'1212.3
2015-Jul-25 16:34N 51°22' E 002°51'9 8.3
2015-Jul-25 15:31N 51°24' E 002°37'0 0.0
2015-Jul-25 14:28N 51°24' E 002°37'0 0.0
2015-Jul-25 13:31N 51°24' E 002°37'0 0.0
2015-Jul-25 12:19N 51°24' E 002°38'0 0.0
2015-Jul-25 11:31N 51°24' E 002°38'0 0.0
2015-Jul-25 10:25N 51°24' E 002°37'0 0.0
2015-Jul-25 09:31N 51°24' E 002°38'0 0.0
2015-Jul-25 08:31N 51°24' E 002°38'0 0.0
2015-Jul-25 07:25N 51°24' E 002°38'0 0.0
2015-Jul-25 06:31N 51°24' E 002°38'0 0.0
2015-Jul-25 05:31N 51°24' E 002°37'0 0.3
2015-Jul-25 04:33N 51°24' E 002°37'7 6.9
2015-Jul-25 03:33N 51°21' E 002°27'1110.9
2015-Jul-25 02:33N 51°19' E 002°11'9 9.1
2015-Jul-25 01:33N 51°24' E 001°59'10 9.6
2015-Jul-25 00:34N 51°32' E 002°06'39 6.5
2015-Jul-24 18:29N 52°11' E 002°21'5 5.5
2015-Jul-24 17:33N 52°16' E 002°23'1 1.1
2015-Jul-24 16:34N 52°15' E 002°23'2 1.7
2015-Jul-24 15:34N 52°14' E 002°21'14 6.6
2015-Jul-24 13:30N 52°27' E 002°25'16 8.4
2015-Jul-24 11:33N 52°43' E 002°25'7 7.2
2015-Jul-24 10:33N 52°51' E 002°26'5 5.2
2015-Jul-24 09:30N 52°55' E 002°31'8 7.4
2015-Jul-24 08:29N 52°47' E 002°33'8 8.2
2015-Jul-24 07:30N 52°39' E 002°33'8 8.1
2015-Jul-24 06:34N 52°32' E 002°33'8 7.7
2015-Jul-24 05:31N 52°24' E 002°33'7 7.2
2015-Jul-24 04:33N 52°17' E 002°33'6 6.4
2015-Jul-24 03:32N 52°10' E 002°33'5 5.2
2015-Jul-24 02:34N 52°14' E 002°28'8 8.3
2015-Jul-24 01:33N 52°22' E 002°28'8 8.4
2015-Jul-24 00:33N 52°31' E 002°29'10 7.7
2015-Jul-23 23:13N 52°41' E 002°29'5 6.9
2015-Jul-23 22:30N 52°46' E 002°29'7 6.6
2015-Jul-23 21:31N 52°53' E 002°29'22 6.7
2015-Jul-23 18:16N 52°32' E 002°20'5 0.8
2015-Jul-23 12:19N 52°28' E 002°24'7 1.0
2015-Jul-23 05:34N 52°31' E 002°33'38 5.9
2015-Jul-22 23:10N 52°04' E 003°15'813.3
2015-Jul-22 22:32N 52°04' E 003°28'1312.9
2015-Jul-22 21:33N 52°04' E 003°49'1010.2
2015-Jul-22 20:34N 51°59' E 004°04'9 8.7
2015-Jul-22 19:34N 51°55' E 004°15'2 2.4
2015-Jul-22 18:32N 51°53' E 004°19'0 0.0
2015-Jul-22 17:29N 51°53' E 004°19'0 0.0
2015-Jul-22 16:29N 51°53' E 004°19'0 0.0
2015-Jul-22 15:29N 51°53' E 004°19'0 0.0
2015-Jul-22 14:29N 51°53' E 004°19'0 0.0
2015-Jul-22 13:26N 51°53' E 004°19'0 0.0
2015-Jul-22 12:32N 51°53' E 004°19'0 0.0
2015-Jul-22 11:32N 51°53' E 004°19'0 0.0
2015-Jul-22 10:29N 51°53' E 004°19'0 0.0
2015-Jul-22 09:29N 51°53' E 004°19'0 0.0
2015-Jul-22 08:32N 51°53' E 004°19'0 0.0
2015-Jul-22 07:29N 51°53' E 004°19'0 0.0
2015-Jul-22 06:26N 51°53' E 004°19'0 0.0
2015-Jul-22 05:32N 51°53' E 004°19'0 0.0
2015-Jul-22 04:29N 51°53' E 004°19'0 0.0
2015-Jul-22 03:29N 51°53' E 004°19'0 0.0
2015-Jul-22 02:26N 51°53' E 004°19'0 0.0
2015-Jul-22 01:29N 51°53' E 004°19'0 0.0
2015-Jul-22 00:23N 51°53' E 004°19'0 0.0
2015-Jul-21 23:32N 51°53' E 004°19'0 0.0
2015-Jul-21 22:32N 51°53' E 004°19'0 0.0
2015-Jul-21 21:29N 51°53' E 004°19'0 0.0
2015-Jul-21 20:29N 51°53' E 004°19'0 0.0
2015-Jul-21 19:17N 51°53' E 004°19'0 0.0
2015-Jul-21 18:32N 51°53' E 004°19'0 0.0
2015-Jul-21 17:32N 51°53' E 004°19'0 0.0
2015-Jul-21 16:32N 51°53' E 004°19'2 2.2
2015-Jul-21 15:33N 51°54' E 004°22'0 0.0
2015-Jul-21 14:31N 51°54' E 004°22'0 0.0
2015-Jul-21 13:31N 51°54' E 004°22'0 0.0
2015-Jul-21 12:28N 51°54' E 004°22'0 0.0
2015-Jul-21 11:31N 51°54' E 004°22'0 0.0
2015-Jul-21 10:31N 51°54' E 004°22'0 0.0
2015-Jul-21 09:25N 51°54' E 004°22'0 0.0
2015-Jul-21 08:28N 51°54' E 004°22'0 0.0
2015-Jul-21 07:31N 51°54' E 004°22'0 0.0
2015-Jul-21 06:31N 51°54' E 004°22'0 0.0
2015-Jul-21 05:31N 51°54' E 004°22'0 0.0
2015-Jul-21 04:31N 51°54' E 004°22'0 0.0
2015-Jul-21 03:31N 51°54' E 004°22'0 0.0
2015-Jul-21 02:31N 51°54' E 004°22'0 0.0
2015-Jul-21 01:31N 51°54' E 004°22'0 0.0
2015-Jul-21 00:31N 51°54' E 004°22'0 0.0
2015-Jul-20 23:31N 51°54' E 004°22'0 0.0
2015-Jul-20 22:28N 51°54' E 004°22'0 0.0
2015-Jul-20 21:31N 51°54' E 004°22'0 0.0
2015-Jul-20 20:31N 51°54' E 004°22'0 0.0
2015-Jul-20 19:31N 51°54' E 004°22'0 0.0
2015-Jul-20 18:31N 51°54' E 004°22'0 0.0
2015-Jul-20 17:28N 51°54' E 004°22'0 0.0
2015-Jul-20 16:31N 51°54' E 004°22'0 0.0
2015-Jul-20 15:31N 51°54' E 004°22'0 0.0
2015-Jul-20 14:31N 51°54' E 004°22'0 0.0
2015-Jul-20 13:31N 51°54' E 004°22'0 0.0
2015-Jul-20 12:31N 51°54' E 004°22'0 0.0
2015-Jul-20 11:31N 51°54' E 004°22'0 0.0
2015-Jul-20 10:31N 51°54' E 004°22'0 0.0
2015-Jul-20 09:31N 51°54' E 004°22'0 0.0
2015-Jul-20 08:31N 51°54' E 004°22'0 0.0
2015-Jul-20 06:25N 51°54' E 004°22'0 0.0
2015-Jul-20 05:31N 51°54' E 004°22'0 0.0
2015-Jul-20 04:31N 51°54' E 004°22'0 0.0
2015-Jul-20 03:28N 51°54' E 004°22'0 0.0
2015-Jul-20 02:31N 51°54' E 004°22'0 0.0
2015-Jul-20 01:28N 51°54' E 004°22'0 0.0
2015-Jul-20 00:31N 51°54' E 004°22'0 0.0
2015-Jul-19 23:31N 51°54' E 004°22'0 0.0
2015-Jul-19 22:31N 51°54' E 004°22'0 0.0
2015-Jul-19 21:31N 51°54' E 004°22'0 0.0
2015-Jul-19 20:31N 51°54' E 004°22'0 0.0
2015-Jul-19 19:31N 51°54' E 004°22'0 0.0
2015-Jul-19 18:28N 51°54' E 004°22'0 0.0
2015-Jul-19 17:28N 51°54' E 004°22'0 0.0
2015-Jul-19 16:31N 51°54' E 004°22'0 0.0
2015-Jul-19 15:31N 51°54' E 004°22'0 0.0
2015-Jul-19 14:31N 51°54' E 004°22'0 0.0
2015-Jul-19 13:31N 51°54' E 004°22'0 0.0
2015-Jul-19 12:31N 51°54' E 004°22'0 0.0
2015-Jul-19 11:31N 51°54' E 004°22'0 0.0
2015-Jul-19 10:31N 51°54' E 004°22'4 4.1
2015-Jul-19 09:33N 51°55' E 004°15'8 7.6
2015-Jul-19 08:33N 51°59' E 004°05'1110.6
2015-Jul-19 07:33N 51°60' E 003°48'10 8.5
2015-Jul-19 06:26N 51°57' E 003°33'2612.0
2015-Jul-19 04:17N 51°50' E 002°53'  

Dump ship's entire track history